createdAt,value
2022-09-12T00:02:33.795Z,11.70
2022-09-12T00:05:47.637Z,12.52
2022-09-12T00:08:59.721Z,11.65
2022-09-12T00:12:05.266Z,13.40
2022-09-12T00:15:11.645Z,15.15
2022-09-12T00:18:17.558Z,12.88
2022-09-12T00:21:23.469Z,12.75
2022-09-12T00:24:28.743Z,14.52
2022-09-12T00:27:34.033Z,18.50
2022-09-12T00:30:49.179Z,18.90
2022-09-12T00:33:57.188Z,14.80
2022-09-12T00:37:03.481Z,14.18
2022-09-12T00:40:09.319Z,16.38
2022-09-12T00:43:43.454Z,14.70
2022-09-12T00:46:56.962Z,13.35
2022-09-12T00:50:12.365Z,15.40
2022-09-12T00:53:18.455Z,20.63
2022-09-12T00:56:24.260Z,16.58
2022-09-12T00:59:49.584Z,13.68
2022-09-12T01:03:05.509Z,16.75
2022-09-12T01:06:20.921Z,16.30
2022-09-12T01:09:26.928Z,15.35
2022-09-12T01:12:34.590Z,18.75
2022-09-12T01:15:40.312Z,16.63
2022-09-12T01:19:06.272Z,15.70
2022-09-12T01:22:23.330Z,17.17
2022-09-12T01:25:39.099Z,21.27
2022-09-12T01:29:05.501Z,16.52
2022-09-12T01:32:29.269Z,18.17
2022-09-12T01:36:19.471Z,16.00
2022-09-12T01:40:07.182Z,20.95
2022-09-12T01:43:48.985Z,15.65
2022-09-12T01:47:08.668Z,21.45
2022-09-12T01:50:20.228Z,18.58
2022-09-12T01:53:35.673Z,17.08
2022-09-12T01:56:43.437Z,19.35
2022-09-12T01:59:53.252Z,17.45
2022-09-12T02:03:10.529Z,16.98
2022-09-12T02:06:25.747Z,17.70
2022-09-12T02:09:55.510Z,22.10
2022-09-12T02:13:30.014Z,25.83
2022-09-12T02:16:51.550Z,16.70
2022-09-12T02:20:07.563Z,20.75
2022-09-12T02:23:41.779Z,18.02
2022-09-12T02:27:02.119Z,20.65
2022-09-12T02:30:09.247Z,16.42
2022-09-12T02:34:08.574Z,15.80
2022-09-12T02:37:54.338Z,18.27
2022-09-12T02:41:00.060Z,21.88
2022-09-12T02:44:06.372Z,18.10
2022-09-12T02:47:20.428Z,18.67
2022-09-12T02:50:27.068Z,20.90
2022-09-12T02:53:34.080Z,17.65
2022-09-12T02:56:43.589Z,20.67
2022-09-12T02:59:50.688Z,23.58
2022-09-12T03:03:20.190Z,21.85
2022-09-12T03:06:58.658Z,19.77
2022-09-12T03:10:41.934Z,19.85
2022-09-12T03:14:19.416Z,18.60
2022-09-12T03:17:59.729Z,17.67
2022-09-12T03:21:37.559Z,20.40
2022-09-12T03:25:20.308Z,16.00
2022-09-12T03:28:27.159Z,17.02
2022-09-12T03:31:32.756Z,18.63
2022-09-12T03:34:39.091Z,18.25
2022-09-12T03:37:44.991Z,16.45
2022-09-12T03:40:54.691Z,19.27
2022-09-12T03:44:00.967Z,18.58
2022-09-12T03:47:11.005Z,17.77
2022-09-12T03:50:17.040Z,19.65
2022-09-12T03:53:22.967Z,15.95
2022-09-12T03:56:29.436Z,19.92
2022-09-12T03:59:35.291Z,18.40
2022-09-12T04:02:40.995Z,24.58
2022-09-12T04:05:47.826Z,19.85
2022-09-12T04:08:55.432Z,18.40
2022-09-12T04:12:02.016Z,19.00
2022-09-12T04:15:08.975Z,19.10
2022-09-12T04:18:14.753Z,17.30
2022-09-12T04:21:24.643Z,17.50
2022-09-12T04:24:30.307Z,20.67
2022-09-12T04:27:36.024Z,23.60
2022-09-12T04:30:41.857Z,17.52
2022-09-12T04:33:49.498Z,17.60
2022-09-12T04:36:55.340Z,18.55
2022-09-12T04:40:01.276Z,22.35
2022-09-12T04:43:11.193Z,18.10
2022-09-12T04:46:22.725Z,18.15
2022-09-12T04:49:28.413Z,16.98
2022-09-12T04:52:37.202Z,15.88
2022-09-12T04:55:43.089Z,19.30
2022-09-12T04:58:48.858Z,16.67
2022-09-12T05:01:55.128Z,16.20
2022-09-12T05:05:04.667Z,14.90
2022-09-12T05:08:10.896Z,15.43
2022-09-12T05:11:24.750Z,13.80
2022-09-12T05:14:33.559Z,16.02
2022-09-12T05:17:39.032Z,16.38
2022-09-12T05:20:44.532Z,16.77
2022-09-12T05:23:54.589Z,12.77
2022-09-12T05:27:00.518Z,21.92
2022-09-12T05:30:07.002Z,14.50
2022-09-12T05:33:15.506Z,21.65
2022-09-12T05:36:24.584Z,17.75
2022-09-12T05:39:30.313Z,18.30
2022-09-12T05:42:36.514Z,17.95
2022-09-12T05:45:42.504Z,17.10
2022-09-12T05:48:53.738Z,19.77
2022-09-12T05:52:01.787Z,17.55
2022-09-12T05:55:08.315Z,22.73
2022-09-12T05:58:14.116Z,19.08
2022-09-12T06:01:20.216Z,18.67
2022-09-12T06:04:26.823Z,18.17
2022-09-12T06:07:32.964Z,15.75
2022-09-12T06:10:38.958Z,16.67
2022-09-12T06:13:45.231Z,19.50
2022-09-12T06:16:51.534Z,21.23
2022-09-12T06:19:57.308Z,19.45
2022-09-12T06:23:03.133Z,20.17
2022-09-12T06:26:10.792Z,21.88
2022-09-12T06:29:17.101Z,15.93
2022-09-12T06:32:22.924Z,13.50
2022-09-12T06:35:28.290Z,13.20
2022-09-12T06:38:34.589Z,14.20
2022-09-12T06:41:43.937Z,12.57
2022-09-12T06:44:50.672Z,12.73
2022-09-12T06:47:57.068Z,16.52
2022-09-12T06:51:13.551Z,12.05
2022-09-12T06:54:20.324Z,14.52
2022-09-12T06:57:28.250Z,9.82
2022-09-12T07:00:33.918Z,7.05
2022-09-12T07:03:40.226Z,12.20
2022-09-12T07:06:45.977Z,14.25
2022-09-12T07:09:51.411Z,12.75
2022-09-12T07:12:57.031Z,12.43
2022-09-12T07:16:04.772Z,8.77
2022-09-12T07:19:11.601Z,11.88
2022-09-12T07:22:17.056Z,8.50
2022-09-12T07:25:22.931Z,13.27
2022-09-12T07:28:32.284Z,9.32
2022-09-12T07:31:38.059Z,8.38
2022-09-12T07:34:44.995Z,7.30
2022-09-12T07:37:50.905Z,10.50
2022-09-12T07:40:57.256Z,6.80
2022-09-12T07:44:04.266Z,6.38
2022-09-12T07:47:09.796Z,7.60
2022-09-12T07:50:16.011Z,9.32
2022-09-12T07:53:21.232Z,10.93
2022-09-12T07:56:31.164Z,9.20
2022-09-12T07:59:52.653Z,5.28
2022-09-12T08:02:59.233Z,7.40
2022-09-12T08:06:06.809Z,7.63
2022-09-12T08:09:17.467Z,10.02
2022-09-12T08:12:22.993Z,4.93
2022-09-12T08:15:29.051Z,9.00
2022-09-12T08:18:36.553Z,8.05
2022-09-12T08:21:42.786Z,9.50
2022-09-12T08:24:49.321Z,6.93
2022-09-12T08:27:56.088Z,5.82
2022-09-12T08:31:08.019Z,6.32
2022-09-12T08:34:13.748Z,8.43
2022-09-12T08:37:19.559Z,8.45
2022-09-12T08:40:25.511Z,5.68
2022-09-12T08:43:54.653Z,9.65
2022-09-12T08:47:28.268Z,5.80
2022-09-12T08:50:33.859Z,4.97
2022-09-12T08:53:40.141Z,5.40
2022-09-12T08:56:46.370Z,5.43
2022-09-12T08:59:52.147Z,4.30
2022-09-12T09:03:27.066Z,4.70
2022-09-12T09:07:04.270Z,7.20
2022-09-12T09:10:30.874Z,3.97
2022-09-12T09:14:31.153Z,5.43
2022-09-12T09:17:47.004Z,10.07
2022-09-12T09:20:58.126Z,6.40
2022-09-12T09:24:10.391Z,5.03
2022-09-12T09:27:40.358Z,7.43
2022-09-12T09:30:47.526Z,10.25
2022-09-12T09:33:57.860Z,4.07
2022-09-12T09:37:19.642Z,5.22
2022-09-12T09:40:38.953Z,3.42
2022-09-12T09:43:44.343Z,4.55
2022-09-12T09:46:55.240Z,6.93
2022-09-12T09:50:00.902Z,6.72
2022-09-12T09:53:07.722Z,4.28
2022-09-12T09:56:48.815Z,5.45
2022-09-12T09:59:54.370Z,5.28
2022-09-12T10:03:15.059Z,8.88
2022-09-12T10:06:23.585Z,4.28
2022-09-12T10:09:35.413Z,5.32
2022-09-12T10:12:41.767Z,5.60
2022-09-12T10:16:00.058Z,7.40
2022-09-12T10:19:06.168Z,4.43
2022-09-12T10:22:19.179Z,8.65
2022-09-12T10:25:26.363Z,5.25
2022-09-12T10:28:54.818Z,4.10
2022-09-12T10:32:05.201Z,6.43
2022-09-12T10:35:31.792Z,3.88
2022-09-12T10:38:37.719Z,4.40
2022-09-12T10:41:43.511Z,7.75
2022-09-12T10:44:56.900Z,4.75
2022-09-12T10:48:30.755Z,3.83
2022-09-12T10:51:36.329Z,3.92
2022-09-12T10:54:42.216Z,4.70
2022-09-12T10:58:28.144Z,3.22
2022-09-12T11:01:44.351Z,7.72
2022-09-12T11:05:23.540Z,2.90
2022-09-12T11:08:49.390Z,3.75
2022-09-12T11:12:19.212Z,4.90
2022-09-12T11:16:04.755Z,3.58
2022-09-12T11:19:51.282Z,3.72
2022-09-12T11:23:36.854Z,6.88
2022-09-12T11:27:10.310Z,6.93
2022-09-12T11:30:18.747Z,4.63
2022-09-12T11:33:44.354Z,3.85
2022-09-12T11:37:28.044Z,3.28
2022-09-12T11:41:01.931Z,2.65
2022-09-12T11:44:19.828Z,3.35
2022-09-12T11:47:27.347Z,4.60
2022-09-12T11:50:33.034Z,3.13
2022-09-12T11:53:41.799Z,7.55
2022-09-12T11:56:49.620Z,3.90
2022-09-12T12:00:15.880Z,3.17
2022-09-12T12:03:46.762Z,3.50
2022-09-12T12:07:06.664Z,2.33
2022-09-12T12:10:41.572Z,3.65
2022-09-12T12:14:01.655Z,4.85
2022-09-12T12:17:15.896Z,6.10
2022-09-12T12:20:23.844Z,4.00
2022-09-12T12:23:35.418Z,4.45
2022-09-12T12:26:41.251Z,4.70
2022-09-12T12:29:47.076Z,7.05
2022-09-12T12:32:52.767Z,3.10
2022-09-12T12:36:01.818Z,3.75
2022-09-12T12:39:32.423Z,6.28
2022-09-12T12:42:38.067Z,4.68
2022-09-12T12:46:02.297Z,4.95
2022-09-12T12:49:24.000Z,5.95
2022-09-12T12:52:33.000Z,2.97
2022-09-12T12:55:52.939Z,3.65
2022-09-12T12:59:12.591Z,6.40
2022-09-12T13:02:42.307Z,3.25
2022-09-12T13:05:55.173Z,2.45
2022-09-12T13:09:08.343Z,4.25
2022-09-12T13:12:25.882Z,5.75
2022-09-12T13:15:37.852Z,4.40
2022-09-12T13:18:49.560Z,5.13
2022-09-12T13:22:04.449Z,3.78
2022-09-12T13:25:34.252Z,7.60
2022-09-12T13:28:40.137Z,2.17
2022-09-12T13:32:00.395Z,10.68
2022-09-12T13:35:23.669Z,2.45
2022-09-12T13:39:04.070Z,2.30
2022-09-12T13:42:58.601Z,4.53
2022-09-12T13:46:04.574Z,2.95
2022-09-12T13:49:50.476Z,3.70
2022-09-12T13:52:59.832Z,5.70
2022-09-12T13:56:05.873Z,3.88
2022-09-12T13:59:13.158Z,2.80
2022-09-12T14:02:24.219Z,6.80
2022-09-12T14:05:30.288Z,3.45
2022-09-12T14:08:41.705Z,3.85
2022-09-12T14:11:47.374Z,4.85
2022-09-12T14:14:53.819Z,6.72
2022-09-12T14:18:03.577Z,3.97
2022-09-12T14:21:30.601Z,4.28
2022-09-12T14:24:37.942Z,3.40
2022-09-12T14:27:54.152Z,3.60
2022-09-12T14:31:06.952Z,3.92
2022-09-12T14:34:16.644Z,3.92
2022-09-12T14:37:22.332Z,4.53
2022-09-12T14:40:28.080Z,4.97
2022-09-12T14:43:41.264Z,3.10
2022-09-12T14:46:48.695Z,3.38
2022-09-12T14:49:55.902Z,3.83
2022-09-12T14:53:16.804Z,3.42
2022-09-12T14:56:37.131Z,2.55
2022-09-12T14:59:43.378Z,7.18
2022-09-12T15:02:51.300Z,3.97
2022-09-12T15:05:57.837Z,2.83
2022-09-12T15:09:12.628Z,5.22
2022-09-12T15:12:18.255Z,6.45
2022-09-12T15:15:24.012Z,5.75
2022-09-12T15:18:30.202Z,8.70
2022-09-12T15:21:36.477Z,3.85
2022-09-12T15:24:42.369Z,4.45
2022-09-12T15:27:50.547Z,3.45
2022-09-12T15:30:57.588Z,4.82
2022-09-12T15:34:03.913Z,5.53
2022-09-12T15:37:14.351Z,3.83
2022-09-12T15:40:20.800Z,3.45
2022-09-12T15:43:26.561Z,24.88
2022-09-12T15:46:32.328Z,5.40
2022-09-12T15:49:38.091Z,3.88
2022-09-12T15:53:08.083Z,6.35
2022-09-12T15:56:46.976Z,7.30
2022-09-12T16:00:43.110Z,7.93
2022-09-12T16:04:34.000Z,5.15
2022-09-12T16:08:15.198Z,4.05
2022-09-12T16:16:28.626Z,3.17
2022-09-12T16:20:11.405Z,10.23
2022-09-12T16:27:34.106Z,8.05
2022-09-12T16:31:30.340Z,4.07
2022-09-12T16:42:39.712Z,10.10
2022-09-12T16:50:00.205Z,10.90
2022-09-12T16:53:16.676Z,10.40
2022-09-12T16:56:34.760Z,11.10
2022-09-12T16:59:41.855Z,7.38
2022-09-12T17:02:48.193Z,10.43
2022-09-12T17:06:12.437Z,11.32
2022-09-12T17:09:34.152Z,10.75
2022-09-12T17:12:51.028Z,18.67
2022-09-12T17:16:00.725Z,6.97
2022-09-12T17:19:35.363Z,8.40
2022-09-12T17:22:51.432Z,7.68
2022-09-12T17:26:21.519Z,9.85
2022-09-12T17:29:31.532Z,7.55
2022-09-12T17:32:41.415Z,9.50
2022-09-12T17:36:24.609Z,6.10
2022-09-12T17:39:38.962Z,7.93
2022-09-12T17:42:56.270Z,7.10
2022-09-12T17:46:06.414Z,8.25
2022-09-12T17:49:22.165Z,6.50
2022-09-12T17:52:28.388Z,11.95
2022-09-12T17:55:37.490Z,6.07
2022-09-12T17:58:43.405Z,5.55
2022-09-12T18:02:07.914Z,6.60
2022-09-12T18:05:14.441Z,7.40
2022-09-12T18:08:22.393Z,6.55
2022-09-12T18:11:29.065Z,7.88
2022-09-12T18:14:36.153Z,9.85
2022-09-12T18:17:44.836Z,9.07
2022-09-12T18:20:52.219Z,8.88
2022-09-12T18:24:01.896Z,8.88
2022-09-12T18:27:08.560Z,8.93
2022-09-12T18:30:21.453Z,10.30
2022-09-12T18:33:28.301Z,8.20
2022-09-12T18:36:36.788Z,6.85
2022-09-12T18:39:43.155Z,7.15
2022-09-12T18:42:49.023Z,9.15
2022-09-12T18:45:54.696Z,8.70
2022-09-12T18:49:02.548Z,8.73
2022-09-12T18:52:08.519Z,8.98
2022-09-12T18:55:14.389Z,9.05
2022-09-12T18:58:20.441Z,10.48
2022-09-12T19:01:29.787Z,6.68
2022-09-12T19:04:37.095Z,6.18
2022-09-12T19:07:42.955Z,6.75
2022-09-12T19:10:56.405Z,10.82
2022-09-12T19:14:02.491Z,8.38
2022-09-12T19:17:09.610Z,10.85
2022-09-12T19:20:16.134Z,9.50
2022-09-12T19:23:21.709Z,9.05
2022-09-12T19:26:27.968Z,8.50
2022-09-12T19:29:34.048Z,9.63
2022-09-12T19:32:39.938Z,13.25
2022-09-12T19:35:46.261Z,7.22
2022-09-12T19:38:52.421Z,6.63
2022-09-12T19:41:58.202Z,6.45
2022-09-12T19:45:04.846Z,10.38
2022-09-12T19:48:10.586Z,9.45
2022-09-12T19:51:18.168Z,6.72
2022-09-12T19:54:23.943Z,8.88
2022-09-12T19:57:30.314Z,8.70
2022-09-12T20:00:36.608Z,9.55
2022-09-12T20:03:43.863Z,10.13
2022-09-12T20:06:49.446Z,7.20
2022-09-12T20:09:55.703Z,14.43
2022-09-12T20:13:01.832Z,10.50
2022-09-12T20:16:21.253Z,8.68
2022-09-12T20:19:28.432Z,8.10
2022-09-12T20:22:38.058Z,8.90
2022-09-12T20:25:45.567Z,9.68
2022-09-12T20:28:51.694Z,5.82
2022-09-12T20:31:57.893Z,6.60
2022-09-12T20:35:04.579Z,5.95
2022-09-12T20:38:10.700Z,10.23
2022-09-12T20:41:18.435Z,6.90
2022-09-12T20:44:23.995Z,8.32
2022-09-12T20:47:30.171Z,10.63
2022-09-12T20:50:35.906Z,9.48
2022-09-12T20:53:43.723Z,8.90
2022-09-12T20:56:49.650Z,8.85
2022-09-12T20:59:55.307Z,9.60
2022-09-12T21:03:01.123Z,9.32
2022-09-12T21:06:08.634Z,14.93
2022-09-12T21:09:15.048Z,13.30
2022-09-12T21:12:20.686Z,9.57
2022-09-12T21:15:26.538Z,8.35
2022-09-12T21:18:33.883Z,8.13
2022-09-12T21:21:39.873Z,10.45
2022-09-12T21:24:45.546Z,7.45
2022-09-12T21:27:51.104Z,14.27
2022-09-12T21:30:56.846Z,13.73
2022-09-12T21:34:02.576Z,7.95
2022-09-12T21:37:08.504Z,10.63
2022-09-12T21:40:14.481Z,8.40
2022-09-12T21:43:20.289Z,8.75
2022-09-12T21:46:26.162Z,9.18
2022-09-12T21:49:32.015Z,7.65
2022-09-12T21:52:37.806Z,8.48
2022-09-12T21:55:43.833Z,7.60
2022-09-12T21:58:49.376Z,10.07
2022-09-12T22:01:55.222Z,6.95
2022-09-12T22:05:00.985Z,10.85
2022-09-12T22:08:08.519Z,8.05
2022-09-12T22:11:15.164Z,8.38
2022-09-12T22:14:21.291Z,10.65
2022-09-12T22:17:27.160Z,7.18
2022-09-12T22:20:32.873Z,11.02
2022-09-12T22:23:57.206Z,7.93
2022-09-12T22:27:05.677Z,9.68
2022-09-12T22:30:12.206Z,10.35
2022-09-12T22:33:18.382Z,8.02
2022-09-12T22:36:28.143Z,11.70
2022-09-12T22:39:39.605Z,7.80
2022-09-12T22:42:46.654Z,7.85
2022-09-12T22:45:52.635Z,12.13
2022-09-12T22:48:58.907Z,10.52
2022-09-12T22:52:05.114Z,8.52
2022-09-12T22:55:11.750Z,8.77
2022-09-12T22:58:17.854Z,6.70
2022-09-12T23:01:24.153Z,9.80
2022-09-12T23:04:30.233Z,9.25
2022-09-12T23:07:35.824Z,10.10
2022-09-12T23:10:43.261Z,7.80
2022-09-12T23:13:50.557Z,7.05
2022-09-12T23:16:56.466Z,10.75
2022-09-12T23:20:02.716Z,11.98
2022-09-12T23:23:08.950Z,11.68
2022-09-12T23:26:17.444Z,9.75
2022-09-12T23:29:23.235Z,8.80
2022-09-12T23:32:29.079Z,7.95
2022-09-12T23:35:35.298Z,10.57
2022-09-12T23:38:43.704Z,11.63
2022-09-12T23:41:50.437Z,13.02
2022-09-12T23:44:56.830Z,11.55
2022-09-12T23:48:03.230Z,9.68
2022-09-12T23:51:09.803Z,14.25
2022-09-12T23:54:15.651Z,10.63
2022-09-12T23:57:21.152Z,9.05
